Arlington, VA

7:54 PM EDT on September 01, 2014 (GMT -0400)
Ashton Heights | Change Station
CLOSE
Current Station
Personal Weather Station
Location: Arlington, VA
Elevation: 258 ft
Nearby Weather Stations

Elev 258 ft 38.88 °N, 77.10 °W | Updated 24 minutes ago

Mostly Cloudy
Mostly Cloudy
84.1 °F
Feels Like 94 °F
N
0.0
Wind Variable Wind from SE
Gusts 0.0 mph

Today
High -- | Low -- °F
--% Chance of Precip.
Yesterday
High -- | Low -- °F
Precip. -- in
6:37 AM 7:38 PM
Waxing Crescent, 45% visible
Pressure 29.96 in
Visibility 10.0 miles
Clouds Few 5500 ft
Scattered Clouds 7000 ft
Mostly Cloudy 25000 ft
Heat Index 94 °F
Dew Point 77 °F
Humidity 79%
Rainfall 0.37 in
Snow Depth Not available.
UV 0 out of 12
Pollen 7.50 out of 12
Ozone Good
PM2.5 Good
Flu Activity Not available.
METAR KDCA 012252Z 00000KT 10SM FEW055 SCT070 BKN250 30/22 A2996 RMK AO2 SLP144 CB DSNT N-S MOV E T03000217

More Conditions Fewer Conditions

Pressure 29.96 in
Visibility 10.0 miles
Clouds Few 5500 ft
Scattered Clouds 7000 ft
Mostly Cloudy 25000 ft
Heat Index 94 °F
Dew Point 77 °F
Humidity 79%
Rainfall 0.37 in
Snow Depth Not available.
UV 0 out of 12
Pollen 7.50 out of 12
Ozone Good
PM2.5 Good
Flu Activity Not available.
METAR KDCA 012252Z 00000KT 10SM FEW055 SCT070 BKN250 30/22 A2996 RMK AO2 SLP144 CB DSNT N-S MOV E T03000217

More Conditions Fewer Conditions

10-Day Weather Forecast

Almanac

Astronomy

Sep. 01, 2014 Rise Set
Actual Time 6:37 AM EDT 7:38 PM EDT
Civil Twilight 6:09 AM EDT 8:05 PM EDT
Nautical Twilight 5:37 AM EDT 8:38 PM EDT
Astronomical Twilight 5:03 AM EDT 9:12 PM EDT
Moon 1:17 PM EDT 11:42 PM EDT
Length of Visible Light 13h 56m
Length of Day
13h 01m
Tomorrow will be 2m 26s shorter.
Waxing Crescent, 45% of the Moon is Illuminated
Today
Waxing Crescent
Sep 2
First Quarter
Sep 8
Full
Sep 15
Last Quarter
Sep 24
New

Today's Extremes

State Highs State Lows

Community

WunderPhotos

Upload Photos

1,749,440 photos uploaded!

Nearby

Air Quality

  Air Quality AQ Index Pollutant
Yesterday Good
PM10
Yesterday Good
OZONE
Current Good
PM2.5
Current Good
OZONE
Monday Moderate
PM2.5
Monday Good
OZONE
Tuesday Moderate
PM2.5
Tuesday Moderate
OZONE

Snow Depth

Station Depth Elevation
No new snow has been reported.

Earthquake Activity

City Distance Mag. Time & Date
No recent earthquake activity has been reported nearby.
Minimum magnitude displayed is 2.5.

Coastal Water Temperatures

Place Temperature
Baltimore, MD 82.0 °F
Solomons Island, MD 82.0 °F

Nearby Weather Stations